Tampico, México

8:24 AM CST en Febrero 19, 2017 (GMT -0600)
Simon Rivera Cd. Madero NTE | | Change Station

Alt 23 ft 22.30 °N, 97.85 °W | Updated 15 seconds ago

Mostly Cloudy
Muy nublado
78.8 ° F
Sensación térmica 82 ° F
N
1.0
Viento Variable Viento desde Norte

Hoy
Alta -- | Baja -- ° F
--% Posibilidad de precipitaciones
Ayer
Alta -- | Baja -- ° F
Precip. -- pul
Presión 29.83 pul
Visibilidad 4.0 Millas
Nubes Nubes dispersas 1500 ft
Muy nublado 20000 ft
Índice de calor 82 ° F
Punto de rocío 70 ° F
Humedad 76%
Precipitaciones No disponible.
Espesor de la nieve No disponible.
7:00 AM 6:30 PM
Cuarto menguante, 43% visible
METAR MMTM 191340Z 00000KT 4SM SCT015 BKN200 23/22 A2983 RMK 8/608 BR
Presión 29.83 pul
Visibilidad 4.0 Millas
Nubes Nubes dispersas 1500 ft
Muy nublado 20000 ft
Índice de calor 82 ° F
Punto de rocío 70 ° F
Humedad 76%
Precipitaciones No disponible.
Espesor de la nieve No disponible.
7:00 AM 6:30 PM
Cuarto menguante, 43% visible
METAR MMTM 191340Z 00000KT 4SM SCT015 BKN200 23/22 A2983 RMK 8/608 BR

Get Your Daily Forecast Email!

Thanks for signing up!

Be on the lookout for a verification email in your inbox.

You'll start receiving the daily forecast at 8 AM.

×

10-Day Weather Forecast

No radar image for this location.
×

Almanac

Astronomía

Feb. 19, 2017 Salida Puesta
Hora real
Crepúsculo civil
Crepúsculo náutico
Crepúsculo astronómico
Luna
Horas de luz
Horas de luz
Tomorrow will be .
, % of the Moon is Illuminated

Extremos de hoy

Máximos del país Bajas del país

Community

WunderPhotos

Upload Photos

1,962,540 ¡fotos cargadas!

WunderBlog® & News

Nearby

Calidad del aire

  Calidad del aire Índice AQ Contaminante
Not available.

Grosos de nieve

Estación Profundido Altura

Actividad de terremotos

Ciudad Distance Mag. Tiempo y dato
Magnitud mínima muestra es 2,5.

Temperaturas de aguas costeras

Lugar Temperatura

Stations

Estaciones meteorológicas cercanas

Ubicación de la estación Temp. Vientos helados Punto de rocío Humedad Viento Precip. Alt Actualizado Tipo